Date,TemperatureHighF,TemperatureAvgF,TemperatureLowF,DewpointHighF,DewpointAvgF,DewpointLowF,HumidityHigh,HumidityAvg,HumidityLow,PressureMaxIn,PressureMinIn,WindSpeedMaxMPH,WindSpeedAvgMPH,GustSpeedMaxMPH,PrecipitationSumIn
2013-3-1,71.8,50.3,28.8,18.2,10.2,-3.6,61,27,10,30.28,30.11,11,4,13,0.00
2013-3-2,66.2,49.7,35.1,23.7,11.9,-0.5,57,26,10,30.41,30.23,12,3,12,0.00
2013-3-3,77.7,59.6,41.9,30.8,14.8,4.2,35,20,10,30.23,29.89,17,7,19,0.00
2013-3-4,91.4,70.1,53.4,45.7,29.8,12.3,70,30,10,29.89,29.70,19,7,21,0.00
2013-3-5,68.9,56.7,41.5,47.2,12.5,-10.9,55,21,10,30.34,29.75,14,6,18,0.00
2013-3-6,65.5,48.4,30.0,7.5,0.7,-12.5,35,15,10,30.43,30.19,9,3,11,0.00
2013-3-7,72.1,58.3,42.6,48.9,32.4,-5.2,67,41,11,30.22,30.07,17,6,21,0.00
2013-3-8,64.2,60.3,55.9,62.9,56.5,48.6,99,88,67,30.13,29.98,17,8,19,0.03
2013-3-9,73.0,65.7,61.3,65.2,61.7,57.0,95,87,68,29.98,29.64,17,10,25,1.09
2013-3-10,65.5,57.4,43.9,59.6,31.7,10.0,96,46,13,30.11,29.69,13,5,24,0.54
2013-3-11,70.9,50.9,32.2,30.7,16.0,0.6,78,35,10,30.17,29.99,9,3,12,0.00
2013-3-12,81.1,61.2,43.0,22.9,14.2,4.1,34,18,10,30.20,30.04,12,4,14,0.00
2013-3-13,79.0,61.2,43.9,31.2,20.5,7.5,54,25,10,30.41,30.21,14,4,14,0.00
2013-3-14,80.4,63.7,48.9,48.8,31.2,14.4,80,37,10,30.36,30.20,12,6,17,0.00
2013-3-15,82.8,67.0,54.3,51.8,36.6,13.6,84,44,10,30.23,29.97,13,7,17,0.00
2013-3-16,86.0,69.5,56.1,57.3,44.7,21.4,87,50,10,29.98,29.73,17,8,21,0.00
2013-3-17,87.8,72.6,64.8,58.1,51.9,37.6,75,53,17,29.80,29.64,16,6,17,0.00
2013-3-18,91.0,74.3,61.3,62.1,41.9,16.6,88,44,10,29.94,29.69,11,4,12,0.00
2013-3-19,86.5,66.9,46.6,57.3,44.8,37.8,75,48,19,30.00,29.81,14,5,16,0.00
2013-3-20,73.0,60.8,51.1,50.0,33.8,10.3,90,47,10,30.23,30.00,14,4,15,0.24
2013-3-21,77.9,64.5,54.5,56.0,44.8,30.1,75,50,35,30.01,29.61,21,7,21,0.00
2013-3-22,88.9,72.5,57.7,62.5,54.8,42.4,87,59,24,29.75,29.62,13,5,14,0.00
2013-3-23,86.0,63.0,50.2,53.0,45.6,34.3,83,58,16,29.79,29.58,7,2,10,0.00
2013-3-24,62.2,52.2,39.9,55.7,17.1,-4.4,80,33,10,30.14,29.69,16,7,19,0.00
2013-3-25,62.1,47.3,34.0,14.2,4.8,-7.6,39,20,10,30.36,30.14,8,3,11,0.00
2013-3-26,68.5,50.1,30.4,18.9,7.0,-4.8,56,22,10,30.45,30.25,11,3,14,0.00
2013-3-27,70.3,56.0,39.9,41.4,24.0,-5.8,57,32,10,30.28,30.13,16,6,17,0.00
2013-3-28,74.3,62.9,54.9,53.3,50.0,41.4,74,63,42,30.18,30.10,14,6,15,0.00
2013-3-29,78.8,68.4,59.9,55.8,50.0,42.7,81,56,28,30.15,30.03,11,7,16,0.00
2013-3-30,86.2,71.6,62.6,58.8,53.9,44.1,85,57,23,30.09,29.87,12,6,17,0.00
2013-3-31,86.9,70.6,62.8,61.4,57.2,43.7,82,65,25,29.96,29.82,11,4,14,0.07